Weslaco Annex Farm's Hourly Summary for Sunday, July 8, 2018
Hour Temp
(f)
RH
(%)
Solar Rad.
(MJ/m2)
Rainfall
(in)
Wind
(mph)
7/8/2018 12:00 AM 77 90 0 0 1.33
7/8/2018 1:00 AM 76 92 0 0 1.67
7/8/2018 2:00 AM 75 94 0 0 1.19
7/8/2018 3:00 AM 75 95 0 0 1.9
7/8/2018 4:00 AM 75 96 0 0 1.39
7/8/2018 5:00 AM 75 97 0 0 2.01
7/8/2018 6:00 AM 75 97 0 0 1.83
7/8/2018 7:00 AM 76 96 0.08 0 2.29
7/8/2018 8:00 AM 79 90 0.35 0 2.72
7/8/2018 9:00 AM 83 80 1.11 0 7.16
7/8/2018 10:00 AM 86 71 1.57 0 10.68
7/8/2018 11:00 AM 88 62 1.67 0 10.02
7/8/2018 12:00 PM 90 55 1.8 0 10.03
7/8/2018 1:00 PM 91 50 1.74 0 10.6
7/8/2018 2:00 PM 91 54 1.76 0 7.99
7/8/2018 3:00 PM 91 53 0.96 0 7.38
7/8/2018 4:00 PM 87 64 0.67 0.05 6.27
7/8/2018 5:00 PM 86 68 0.43 0.01 4.98
7/8/2018 6:00 PM 86 64 0.16 0 6.81
7/8/2018 7:00 PM 85 69 0.08 0 7.63
7/8/2018 8:00 PM 83 74 0.01 0 6.76
7/8/2018 9:00 PM 82 80 0 0 5.42
7/8/2018 10:00 PM 80 86 0 0 3.92
7/8/2018 11:00 PM 79 90 0 0 3.45
Data Summary 82 77 12.39 0.06 5.23